createdAt,value
2022-11-13T00:04:41.152Z,7.94
2022-11-13T00:09:42.521Z,7.89
2022-11-13T00:14:44.013Z,7.82
2022-11-13T00:19:45.382Z,7.83
2022-11-13T00:24:46.839Z,7.81
2022-11-13T00:29:48.218Z,7.72
2022-11-13T00:34:49.593Z,7.76
2022-11-13T00:39:54.436Z,7.68
2022-11-13T00:44:58.395Z,7.64
2022-11-13T00:49:59.759Z,7.62
2022-11-13T00:55:01.128Z,7.63
2022-11-13T01:00:02.914Z,7.59
2022-11-13T01:05:04.589Z,7.55
2022-11-13T01:10:07.365Z,7.54
2022-11-13T01:15:09.321Z,7.47
2022-11-13T01:20:11.122Z,7.47
2022-11-13T01:25:12.534Z,7.43
2022-11-13T01:30:13.949Z,7.37
2022-11-13T01:35:15.462Z,7.30
2022-11-13T01:40:16.926Z,7.26
2022-11-13T01:46:09.795Z,7.17
2022-11-13T01:51:20.852Z,7.13
2022-11-13T01:56:22.670Z,7.09
2022-11-13T02:01:24.102Z,7.01
2022-11-13T02:06:30.404Z,7.05
2022-11-13T02:11:31.902Z,7.09
2022-11-13T02:16:36.652Z,7.04
2022-11-13T02:21:47.710Z,7.05
2022-11-13T02:26:51.874Z,7.02
2022-11-13T02:31:53.211Z,6.98
2022-11-13T02:36:54.613Z,6.88
2022-11-13T02:41:55.977Z,6.91
2022-11-13T02:46:57.345Z,6.80
2022-11-13T02:51:58.820Z,6.75
2022-11-13T02:57:00.199Z,6.65
2022-11-13T03:02:01.619Z,6.47
2022-11-13T03:07:03.323Z,6.42
2022-11-13T03:12:05.073Z,6.19
2022-11-13T03:17:06.430Z,6.00
2022-11-13T03:22:07.925Z,5.99
2022-11-13T03:27:09.342Z,5.99
2022-11-13T03:32:10.738Z,6.00
2022-11-13T03:37:12.081Z,5.98
2022-11-13T03:42:13.434Z,5.96
2022-11-13T03:47:15.542Z,5.88
2022-11-13T03:52:16.942Z,5.89
2022-11-13T03:57:18.581Z,5.88
2022-11-13T04:02:19.920Z,5.92
2022-11-13T04:07:21.361Z,5.93
2022-11-13T04:12:22.769Z,5.89
2022-11-13T04:17:24.159Z,5.86
2022-11-13T04:22:25.581Z,5.84
2022-11-13T04:27:27.021Z,5.66
2022-11-13T04:32:28.519Z,5.66
2022-11-13T04:37:29.889Z,5.71
2022-11-13T04:42:49.423Z,5.68
2022-11-13T04:47:51.430Z,5.65
2022-11-13T04:52:52.873Z,5.65
2022-11-13T04:57:55.533Z,5.60
2022-11-13T05:02:59.394Z,5.51
2022-11-13T05:08:00.803Z,5.40
2022-11-13T05:13:02.215Z,5.31
2022-11-13T05:18:03.685Z,5.35
2022-11-13T05:23:05.165Z,5.33
2022-11-13T05:28:06.603Z,5.28
2022-11-13T05:33:08.291Z,5.18
2022-11-13T05:38:09.694Z,5.11
2022-11-13T05:43:11.039Z,5.18
2022-11-13T05:48:12.459Z,5.26
2022-11-13T05:53:13.895Z,5.24
2022-11-13T05:58:15.256Z,5.25
2022-11-13T06:03:16.649Z,5.27
2022-11-13T06:08:18.079Z,5.20
2022-11-13T06:13:19.790Z,5.22
2022-11-13T06:18:26.707Z,5.21
2022-11-13T06:23:28.389Z,5.19
2022-11-13T06:28:30.117Z,5.21
2022-11-13T06:33:32.258Z,5.21
2022-11-13T06:38:35.872Z,5.24
2022-11-13T06:43:37.736Z,5.22
2022-11-13T06:48:39.258Z,5.28
2022-11-13T06:53:40.805Z,5.28
2022-11-13T06:58:43.655Z,5.30
2022-11-13T07:03:45.523Z,5.34
2022-11-13T07:08:47.672Z,5.34
2022-11-13T07:13:49.786Z,5.34
2022-11-13T07:18:54.311Z,5.28
2022-11-13T07:23:56.036Z,5.31
2022-11-13T07:28:57.523Z,5.39
2022-11-13T07:33:59.078Z,5.34
2022-11-13T07:39:00.614Z,5.37
2022-11-13T07:44:05.442Z,5.35
2022-11-13T07:49:09.359Z,5.35
2022-11-13T07:54:10.733Z,5.35
2022-11-13T07:59:12.081Z,5.41
2022-11-13T08:04:13.425Z,5.42
2022-11-13T08:09:14.814Z,5.45
2022-11-13T08:14:16.170Z,5.58
2022-11-13T08:19:17.552Z,5.66
2022-11-13T08:24:18.938Z,5.82
2022-11-13T08:29:20.280Z,5.84
2022-11-13T08:34:21.626Z,5.91
2022-11-13T08:39:23.021Z,6.01
2022-11-13T08:44:24.440Z,6.18
2022-11-13T08:49:25.905Z,6.31
2022-11-13T08:54:27.303Z,6.52
2022-11-13T08:59:28.702Z,6.72
2022-11-13T09:04:30.062Z,6.90
2022-11-13T09:09:31.433Z,7.09
2022-11-13T09:14:32.828Z,7.25
2022-11-13T09:19:34.271Z,7.38
2022-11-13T09:24:35.647Z,7.57
2022-11-13T09:29:37.043Z,7.74
2022-11-13T09:34:38.956Z,7.88
2022-11-13T09:39:40.403Z,8.11
2022-11-13T09:44:47.714Z,8.27
2022-11-13T09:49:58.606Z,8.44
2022-11-13T09:55:00.161Z,8.64
2022-11-13T10:00:12.657Z,8.86
2022-11-13T10:05:27.529Z,9.02
2022-11-13T10:10:52.221Z,9.17
2022-11-13T10:16:22.745Z,9.38
2022-11-13T10:21:54.905Z,9.50
2022-11-13T10:27:00.199Z,9.68
2022-11-13T10:32:23.132Z,9.82
2022-11-13T10:37:33.971Z,10.00
2022-11-13T10:42:41.778Z,10.11
2022-11-13T10:48:03.745Z,10.24
2022-11-13T10:53:16.247Z,10.40
2022-11-13T10:58:19.632Z,10.57
2022-11-13T11:03:24.414Z,10.73
2022-11-13T11:08:35.149Z,10.92
2022-11-13T11:13:36.557Z,11.14
2022-11-13T11:18:47.454Z,11.30
2022-11-13T11:24:04.358Z,11.46
2022-11-13T11:29:17.309Z,11.67
2022-11-13T11:34:25.578Z,11.80
2022-11-13T11:39:31.434Z,11.90
2022-11-13T11:44:48.058Z,12.09
2022-11-13T11:49:49.531Z,12.36
2022-11-13T11:55:32.988Z,12.53
2022-11-13T12:00:41.204Z,12.71
2022-11-13T12:05:57.335Z,12.87
2022-11-13T12:11:04.655Z,13.02
2022-11-13T12:16:43.488Z,13.17
2022-11-13T12:21:57.035Z,13.33
2022-11-13T12:27:21.984Z,13.50
2022-11-13T12:32:35.190Z,13.61
2022-11-13T12:37:42.425Z,13.71
2022-11-13T12:42:55.056Z,13.80
2022-11-13T12:47:56.587Z,13.86
2022-11-13T12:53:03.058Z,13.96
2022-11-13T12:58:32.896Z,13.94
2022-11-13T13:04:05.123Z,14.00
2022-11-13T13:09:18.587Z,14.05
2022-11-13T13:14:40.690Z,14.14
2022-11-13T13:19:42.232Z,14.17
2022-11-13T13:24:43.631Z,14.17
2022-11-13T13:29:45.067Z,14.23
2022-11-13T13:35:08.245Z,14.28
2022-11-13T13:40:09.764Z,14.29
2022-11-13T13:45:51.724Z,14.27
2022-11-13T13:50:53.838Z,14.26
2022-11-13T13:55:56.402Z,14.35
2022-11-13T14:01:17.620Z,14.38
2022-11-13T14:06:24.721Z,14.35
2022-11-13T14:11:29.310Z,14.35
2022-11-13T14:16:30.683Z,14.38
2022-11-13T14:21:32.768Z,14.36
2022-11-13T14:26:34.425Z,14.32
2022-11-13T14:31:36.871Z,14.31
2022-11-13T14:36:40.735Z,14.34
2022-11-13T14:41:49.413Z,14.37
2022-11-13T14:47:00.307Z,14.38
2022-11-13T14:52:02.411Z,14.36
2022-11-13T14:57:09.302Z,14.40
2022-11-13T15:02:12.461Z,14.35
2022-11-13T15:07:34.152Z,14.27
2022-11-13T15:12:35.482Z,14.22
2022-11-13T15:17:36.946Z,14.12
2022-11-13T15:28:07.682Z,13.83
2022-11-13T15:33:14.605Z,13.71
2022-11-13T15:38:16.024Z,13.63
2022-11-13T15:43:21.989Z,13.49
2022-11-13T15:48:23.450Z,13.38
2022-11-13T15:53:24.991Z,13.20
2022-11-13T15:58:30.509Z,12.96
2022-11-13T16:03:39.621Z,12.78
2022-11-13T16:08:41.072Z,12.58
2022-11-13T16:13:43.078Z,12.41
2022-11-13T16:18:44.553Z,12.24
2022-11-13T16:23:45.924Z,12.12
2022-11-13T16:29:12.045Z,11.90
2022-11-13T16:34:09.483Z,11.74
2022-11-13T16:39:15.822Z,11.53
2022-11-13T16:44:17.199Z,11.39
2022-11-13T16:49:21.247Z,11.19
2022-11-13T16:54:22.602Z,11.03
2022-11-13T16:59:24.083Z,10.97
2022-11-13T17:04:25.447Z,10.91
2022-11-13T17:09:26.871Z,10.84
2022-11-13T17:14:28.230Z,10.75
2022-11-13T17:19:29.629Z,10.67
2022-11-13T17:24:30.994Z,10.57
2022-11-13T17:29:33.162Z,10.37
2022-11-13T17:34:34.573Z,10.35
2022-11-13T17:39:35.951Z,10.23
2022-11-13T17:44:37.586Z,10.13
2022-11-13T17:49:39.057Z,10.00
2022-11-13T17:54:40.459Z,9.87
2022-11-13T17:59:41.809Z,9.70
2022-11-13T18:04:43.156Z,9.66
2022-11-13T18:09:44.570Z,9.53
2022-11-13T18:14:52.159Z,9.48
2022-11-13T18:20:01.331Z,9.38
2022-11-13T18:25:03.441Z,9.24
2022-11-13T18:30:05.454Z,9.13
2022-11-13T18:35:07.302Z,9.03
2022-11-13T18:40:09.629Z,8.96
2022-11-13T18:45:11.823Z,8.81
2022-11-13T18:50:13.201Z,8.77
2022-11-13T18:55:14.627Z,8.69
2022-11-13T19:00:16.726Z,8.53
2022-11-13T19:05:18.091Z,8.40
2022-11-13T19:10:19.691Z,8.23
2022-11-13T19:15:21.125Z,8.08
2022-11-13T19:20:22.577Z,8.12
2022-11-13T19:25:23.947Z,8.12
2022-11-13T19:30:25.365Z,8.01
2022-11-13T19:35:26.803Z,7.90
2022-11-13T19:40:28.283Z,7.91
2022-11-13T19:45:31.025Z,7.92
2022-11-13T19:50:32.973Z,7.87
2022-11-13T19:55:34.732Z,7.83
2022-11-13T20:00:36.308Z,7.75
2022-11-13T20:05:41.894Z,7.69
2022-11-13T20:10:43.282Z,7.67
2022-11-13T20:15:52.099Z,7.59
2022-11-13T20:20:55.125Z,7.54
2022-11-13T20:25:59.516Z,7.49
2022-11-13T20:31:07.915Z,7.50
2022-11-13T20:36:09.676Z,7.48
2022-11-13T20:41:12.466Z,7.54
2022-11-13T20:46:15.445Z,7.54
2022-11-13T20:51:20.308Z,7.53
2022-11-13T20:56:23.540Z,7.53
2022-11-13T21:01:26.105Z,7.55
2022-11-13T21:06:27.537Z,7.49
2022-11-13T21:11:29.480Z,7.48
2022-11-13T21:16:31.468Z,7.41
2022-11-13T21:21:32.893Z,7.44
2022-11-13T21:26:34.270Z,7.37
2022-11-13T21:31:35.642Z,7.28
2022-11-13T21:36:37.057Z,7.20
2022-11-13T21:41:38.494Z,7.17
2022-11-13T21:46:41.934Z,7.17
2022-11-13T21:51:43.570Z,7.10
2022-11-13T21:56:44.994Z,7.03
2022-11-13T22:01:46.472Z,6.96
2022-11-13T22:06:49.579Z,6.87
2022-11-13T22:11:51.262Z,6.80
2022-11-13T22:16:52.785Z,6.67
2022-11-13T22:21:54.250Z,6.54
2022-11-13T22:26:55.668Z,6.43
2022-11-13T22:31:57.011Z,6.41
2022-11-13T22:36:58.372Z,6.38
2022-11-13T22:41:59.714Z,6.41
2022-11-13T22:47:01.041Z,6.43
2022-11-13T22:52:02.382Z,6.40
2022-11-13T22:57:03.966Z,6.33
2022-11-13T23:02:05.374Z,6.42
2022-11-13T23:07:06.798Z,6.40
2022-11-13T23:12:09.454Z,6.35
2022-11-13T23:17:10.788Z,6.30
2022-11-13T23:22:12.171Z,6.24
2022-11-13T23:27:13.540Z,6.16
2022-11-13T23:32:14.919Z,6.11
2022-11-13T23:37:16.325Z,6.10
2022-11-13T23:42:32.993Z,6.03
2022-11-13T23:47:39.088Z,5.97
2022-11-13T23:52:40.482Z,5.89
2022-11-13T23:57:41.837Z,5.75
